sensor_id;sensor_type;location;lat;lon;timestamp;P1;durP1;ratioP1;P2;durP2;ratioP2
32333;SDS011;18810;53.040;8.850;2022-09-09T00:01:27;68.97;;;35.40;;
32333;SDS011;18810;53.040;8.850;2022-09-09T00:04:12;64.88;;;35.90;;
32333;SDS011;18810;53.040;8.850;2022-09-09T00:06:46;70.75;;;37.90;;
32333;SDS011;18810;53.040;8.850;2022-09-09T00:09:17;72.80;;;38.30;;
32333;SDS011;18810;53.040;8.850;2022-09-09T00:17:38;77.97;;;41.38;;
32333;SDS011;18810;53.040;8.850;2022-09-09T00:23:08;86.05;;;42.60;;
32333;SDS011;18810;53.040;8.850;2022-09-09T00:26:02;86.97;;;45.13;;
32333;SDS011;18810;53.040;8.850;2022-09-09T00:31:33;86.53;;;43.38;;
32333;SDS011;18810;53.040;8.850;2022-09-09T00:34:05;98.07;;;47.63;;
32333;SDS011;18810;53.040;8.850;2022-09-09T00:36:36;91.43;;;46.40;;
32333;SDS011;18810;53.040;8.850;2022-09-09T00:39:03;99.82;;;46.33;;
32333;SDS011;18810;53.040;8.850;2022-09-09T00:44:17;95.75;;;48.97;;
32333;SDS011;18810;53.040;8.850;2022-09-09T00:46:51;98.85;;;49.33;;
32333;SDS011;18810;53.040;8.850;2022-09-09T00:52:47;95.18;;;47.75;;
32333;SDS011;18810;53.040;8.850;2022-09-09T00:57:51;95.00;;;47.13;;
32333;SDS011;18810;53.040;8.850;2022-09-09T01:05:29;76.63;;;42.85;;
32333;SDS011;18810;53.040;8.850;2022-09-09T01:07:55;82.18;;;46.08;;
32333;SDS011;18810;53.040;8.850;2022-09-09T01:10:43;82.50;;;45.20;;
32333;SDS011;18810;53.040;8.850;2022-09-09T01:13:33;86.80;;;44.42;;
32333;SDS011;18810;53.040;8.850;2022-09-09T01:16:01;77.90;;;43.75;;
32333;SDS011;18810;53.040;8.850;2022-09-09T01:18:30;84.53;;;43.55;;
32333;SDS011;18810;53.040;8.850;2022-09-09T01:26:18;76.88;;;41.75;;
32333;SDS011;18810;53.040;8.850;2022-09-09T01:29:10;77.68;;;41.90;;
32333;SDS011;18810;53.040;8.850;2022-09-09T01:31:59;69.93;;;37.53;;
32333;SDS011;18810;53.040;8.850;2022-09-09T01:34:25;72.82;;;39.45;;
32333;SDS011;18810;53.040;8.850;2022-09-09T01:37:05;68.60;;;38.20;;
32333;SDS011;18810;53.040;8.850;2022-09-09T01:39:33;69.72;;;36.10;;
32333;SDS011;18810;53.040;8.850;2022-09-09T01:42:00;66.88;;;36.47;;
32333;SDS011;18810;53.040;8.850;2022-09-09T01:44:26;66.50;;;34.78;;
32333;SDS011;18810;53.040;8.850;2022-09-09T01:46:54;61.83;;;34.88;;
32333;SDS011;18810;53.040;8.850;2022-09-09T01:49:20;69.47;;;36.15;;
32333;SDS011;18810;53.040;8.850;2022-09-09T01:51:47;59.50;;;34.72;;
32333;SDS011;18810;53.040;8.850;2022-09-09T01:54:16;59.50;;;33.85;;
32333;SDS011;18810;53.040;8.850;2022-09-09T01:59:18;69.07;;;36.67;;
32333;SDS011;18810;53.040;8.850;2022-09-09T02:02:10;68.65;;;36.65;;
32333;SDS011;18810;53.040;8.850;2022-09-09T02:04:42;61.05;;;34.45;;
32333;SDS011;18810;53.040;8.850;2022-09-09T02:09:58;51.95;;;32.05;;
32333;SDS011;18810;53.040;8.850;2022-09-09T02:12:30;51.63;;;30.48;;
32333;SDS011;18810;53.040;8.850;2022-09-09T02:15:00;53.83;;;32.90;;
32333;SDS011;18810;53.040;8.850;2022-09-09T02:17:32;55.17;;;33.08;;
32333;SDS011;18810;53.040;8.850;2022-09-09T02:20:11;53.17;;;32.28;;
32333;SDS011;18810;53.040;8.850;2022-09-09T02:22:39;53.22;;;32.85;;
32333;SDS011;18810;53.040;8.850;2022-09-09T02:25:08;46.30;;;29.67;;
32333;SDS011;18810;53.040;8.850;2022-09-09T02:27:43;60.30;;;33.63;;
32333;SDS011;18810;53.040;8.850;2022-09-09T02:30:10;45.97;;;28.98;;
32333;SDS011;18810;53.040;8.850;2022-09-09T02:32:37;46.50;;;29.60;;
32333;SDS011;18810;53.040;8.850;2022-09-09T02:35:12;54.03;;;30.77;;
32333;SDS011;18810;53.040;8.850;2022-09-09T02:37:39;46.72;;;29.70;;
32333;SDS011;18810;53.040;8.850;2022-09-09T02:40:07;50.25;;;30.77;;
32333;SDS011;18810;53.040;8.850;2022-09-09T02:42:39;46.75;;;28.95;;
32333;SDS011;18810;53.040;8.850;2022-09-09T02:45:06;45.35;;;29.33;;
32333;SDS011;18810;53.040;8.850;2022-09-09T02:47:34;46.95;;;29.08;;
32333;SDS011;18810;53.040;8.850;2022-09-09T02:50:20;45.75;;;28.88;;
32333;SDS011;18810;53.040;8.850;2022-09-09T02:58:05;49.43;;;30.70;;
32333;SDS011;18810;53.040;8.850;2022-09-09T03:00:36;45.70;;;28.73;;
32333;SDS011;18810;53.040;8.850;2022-09-09T03:03:03;51.42;;;30.90;;
32333;SDS011;18810;53.040;8.850;2022-09-09T03:05:29;43.40;;;27.08;;
32333;SDS011;18810;53.040;8.850;2022-09-09T03:07:55;47.53;;;30.35;;
32333;SDS011;18810;53.040;8.850;2022-09-09T03:10:21;44.88;;;30.42;;
32333;SDS011;18810;53.040;8.850;2022-09-09T03:12:47;49.45;;;31.05;;
32333;SDS011;18810;53.040;8.850;2022-09-09T03:15:13;51.33;;;30.02;;
32333;SDS011;18810;53.040;8.850;2022-09-09T03:17:40;43.33;;;27.23;;
32333;SDS011;18810;53.040;8.850;2022-09-09T03:20:06;53.92;;;31.38;;
32333;SDS011;18810;53.040;8.850;2022-09-09T03:22:33;49.05;;;30.00;;
32333;SDS011;18810;53.040;8.850;2022-09-09T03:24:59;52.92;;;31.08;;
32333;SDS011;18810;53.040;8.850;2022-09-09T03:27:25;48.88;;;29.50;;
32333;SDS011;18810;53.040;8.850;2022-09-09T03:29:50;49.60;;;30.17;;
32333;SDS011;18810;53.040;8.850;2022-09-09T03:32:17;49.25;;;30.73;;
32333;SDS011;18810;53.040;8.850;2022-09-09T03:34:43;48.08;;;29.90;;
32333;SDS011;18810;53.040;8.850;2022-09-09T03:37:09;46.92;;;29.85;;
32333;SDS011;18810;53.040;8.850;2022-09-09T03:39:35;51.83;;;29.55;;
32333;SDS011;18810;53.040;8.850;2022-09-09T03:42:01;53.38;;;28.80;;
32333;SDS011;18810;53.040;8.850;2022-09-09T03:44:31;46.92;;;28.52;;
32333;SDS011;18810;53.040;8.850;2022-09-09T03:46:57;43.80;;;27.60;;
32333;SDS011;18810;53.040;8.850;2022-09-09T03:49:25;47.92;;;26.42;;
32333;SDS011;18810;53.040;8.850;2022-09-09T03:51:53;41.63;;;24.33;;
32333;SDS011;18810;53.040;8.850;2022-09-09T03:54:19;41.97;;;24.25;;
32333;SDS011;18810;53.040;8.850;2022-09-09T03:56:45;45.67;;;24.73;;
32333;SDS011;18810;53.040;8.850;2022-09-09T03:59:11;39.00;;;23.33;;
32333;SDS011;18810;53.040;8.850;2022-09-09T04:01:39;31.60;;;19.83;;
32333;SDS011;18810;53.040;8.850;2022-09-09T04:04:05;35.85;;;21.35;;
32333;SDS011;18810;53.040;8.850;2022-09-09T04:06:31;29.33;;;19.67;;
32333;SDS011;18810;53.040;8.850;2022-09-09T04:08:57;29.63;;;19.70;;
32333;SDS011;18810;53.040;8.850;2022-09-09T04:11:23;32.38;;;18.13;;
32333;SDS011;18810;53.040;8.850;2022-09-09T04:13:49;28.02;;;18.20;;
32333;SDS011;18810;53.040;8.850;2022-09-09T04:16:15;29.23;;;18.02;;
32333;SDS011;18810;53.040;8.850;2022-09-09T04:18:41;23.13;;;15.63;;
32333;SDS011;18810;53.040;8.850;2022-09-09T04:21:08;27.70;;;16.15;;
32333;SDS011;18810;53.040;8.850;2022-09-09T04:23:35;28.92;;;15.85;;
32333;SDS011;18810;53.040;8.850;2022-09-09T04:26:01;21.48;;;14.68;;
32333;SDS011;18810;53.040;8.850;2022-09-09T04:28:29;26.50;;;14.80;;
32333;SDS011;18810;53.040;8.850;2022-09-09T04:30:56;21.58;;;13.57;;
32333;SDS011;18810;53.040;8.850;2022-09-09T04:33:23;25.42;;;14.60;;
32333;SDS011;18810;53.040;8.850;2022-09-09T04:35:51;22.70;;;14.13;;
32333;SDS011;18810;53.040;8.850;2022-09-09T04:38:18;27.00;;;14.95;;
32333;SDS011;18810;53.040;8.850;2022-09-09T04:40:47;24.05;;;13.35;;
32333;SDS011;18810;53.040;8.850;2022-09-09T04:43:14;23.88;;;14.07;;
32333;SDS011;18810;53.040;8.850;2022-09-09T04:45:40;21.23;;;14.23;;
32333;SDS011;18810;53.040;8.850;2022-09-09T04:48:06;18.58;;;13.23;;
32333;SDS011;18810;53.040;8.850;2022-09-09T04:50:33;21.80;;;13.40;;
32333;SDS011;18810;53.040;8.850;2022-09-09T04:53:02;20.10;;;12.63;;
32333;SDS011;18810;53.040;8.850;2022-09-09T04:55:29;24.35;;;13.65;;
32333;SDS011;18810;53.040;8.850;2022-09-09T04:57:56;24.75;;;14.23;;
32333;SDS011;18810;53.040;8.850;2022-09-09T05:00:25;18.70;;;12.13;;
32333;SDS011;18810;53.040;8.850;2022-09-09T05:02:51;20.48;;;12.48;;
32333;SDS011;18810;53.040;8.850;2022-09-09T05:05:17;18.35;;;12.57;;
32333;SDS011;18810;53.040;8.850;2022-09-09T05:07:43;18.88;;;12.18;;
32333;SDS011;18810;53.040;8.850;2022-09-09T05:10:09;18.55;;;11.55;;
32333;SDS011;18810;53.040;8.850;2022-09-09T05:12:35;22.65;;;12.85;;
32333;SDS011;18810;53.040;8.850;2022-09-09T05:15:01;17.98;;;11.98;;
32333;SDS011;18810;53.040;8.850;2022-09-09T05:17:28;18.85;;;10.45;;
32333;SDS011;18810;53.040;8.850;2022-09-09T05:19:54;17.45;;;11.88;;
32333;SDS011;18810;53.040;8.850;2022-09-09T05:22:20;17.15;;;11.50;;
32333;SDS011;18810;53.040;8.850;2022-09-09T05:24:49;16.38;;;11.38;;
32333;SDS011;18810;53.040;8.850;2022-09-09T05:27:27;16.00;;;10.45;;
32333;SDS011;18810;53.040;8.850;2022-09-09T05:29:53;17.73;;;11.23;;
32333;SDS011;18810;53.040;8.850;2022-09-09T05:32:19;18.65;;;10.77;;
32333;SDS011;18810;53.040;8.850;2022-09-09T05:34:44;15.65;;;10.85;;
32333;SDS011;18810;53.040;8.850;2022-09-09T05:37:11;17.85;;;12.05;;
32333;SDS011;18810;53.040;8.850;2022-09-09T05:39:37;19.85;;;12.52;;
32333;SDS011;18810;53.040;8.850;2022-09-09T05:42:03;18.15;;;10.77;;
32333;SDS011;18810;53.040;8.850;2022-09-09T05:44:29;21.55;;;11.77;;
32333;SDS011;18810;53.040;8.850;2022-09-09T05:46:55;19.85;;;11.93;;
32333;SDS011;18810;53.040;8.850;2022-09-09T05:49:22;22.08;;;11.90;;
32333;SDS011;18810;53.040;8.850;2022-09-09T05:51:49;20.10;;;12.13;;
32333;SDS011;18810;53.040;8.850;2022-09-09T05:54:15;19.20;;;12.20;;
32333;SDS011;18810;53.040;8.850;2022-09-09T05:56:41;18.17;;;12.07;;
32333;SDS011;18810;53.040;8.850;2022-09-09T05:59:08;19.27;;;11.57;;
32333;SDS011;18810;53.040;8.850;2022-09-09T06:01:34;17.80;;;11.05;;
32333;SDS011;18810;53.040;8.850;2022-09-09T06:04:05;18.17;;;11.63;;
32333;SDS011;18810;53.040;8.850;2022-09-09T06:06:32;19.15;;;11.68;;
32333;SDS011;18810;53.040;8.850;2022-09-09T06:09:05;21.13;;;12.27;;
32333;SDS011;18810;53.040;8.850;2022-09-09T06:11:34;17.50;;;11.88;;
32333;SDS011;18810;53.040;8.850;2022-09-09T06:14:01;17.85;;;11.63;;
32333;SDS011;18810;53.040;8.850;2022-09-09T06:16:27;18.55;;;11.18;;
32333;SDS011;18810;53.040;8.850;2022-09-09T06:18:54;13.95;;;10.57;;
32333;SDS011;18810;53.040;8.850;2022-09-09T06:21:22;14.07;;;9.38;;
32333;SDS011;18810;53.040;8.850;2022-09-09T06:23:52;15.60;;;11.40;;
32333;SDS011;18810;53.040;8.850;2022-09-09T06:28:44;18.00;;;9.57;;
32333;SDS011;18810;53.040;8.850;2022-09-09T06:31:12;15.10;;;8.93;;
32333;SDS011;18810;53.040;8.850;2022-09-09T06:33:40;11.95;;;9.25;;
32333;SDS011;18810;53.040;8.850;2022-09-09T06:36:07;12.32;;;7.78;;
32333;SDS011;18810;53.040;8.850;2022-09-09T06:38:37;12.32;;;7.38;;
32333;SDS011;18810;53.040;8.850;2022-09-09T06:41:03;10.60;;;7.20;;
32333;SDS011;18810;53.040;8.850;2022-09-09T06:43:30;9.50;;;7.28;;
32333;SDS011;18810;53.040;8.850;2022-09-09T06:45:58;9.73;;;7.18;;
32333;SDS011;18810;53.040;8.850;2022-09-09T06:48:28;9.65;;;7.13;;
32333;SDS011;18810;53.040;8.850;2022-09-09T06:51:05;12.52;;;7.40;;
32333;SDS011;18810;53.040;8.850;2022-09-09T06:53:32;14.77;;;8.82;;
32333;SDS011;18810;53.040;8.850;2022-09-09T06:55:59;12.02;;;7.93;;
32333;SDS011;18810;53.040;8.850;2022-09-09T06:58:27;12.50;;;8.15;;
32333;SDS011;18810;53.040;8.850;2022-09-09T07:01:00;13.32;;;8.98;;
32333;SDS011;18810;53.040;8.850;2022-09-09T07:03:30;13.13;;;8.48;;
32333;SDS011;18810;53.040;8.850;2022-09-09T07:05:56;9.02;;;7.22;;
32333;SDS011;18810;53.040;8.850;2022-09-09T07:08:23;9.25;;;7.20;;
32333;SDS011;18810;53.040;8.850;2022-09-09T07:10:49;7.93;;;6.32;;
32333;SDS011;18810;53.040;8.850;2022-09-09T07:13:16;10.77;;;6.20;;
32333;SDS011;18810;53.040;8.850;2022-09-09T07:15:46;7.78;;;5.28;;
32333;SDS011;18810;53.040;8.850;2022-09-09T07:18:12;9.20;;;6.18;;
32333;SDS011;18810;53.040;8.850;2022-09-09T07:20:38;8.63;;;5.60;;
32333;SDS011;18810;53.040;8.850;2022-09-09T07:23:04;8.27;;;6.20;;
32333;SDS011;18810;53.040;8.850;2022-09-09T07:25:31;10.00;;;5.60;;
32333;SDS011;18810;53.040;8.850;2022-09-09T07:27:57;7.10;;;4.85;;
32333;SDS011;18810;53.040;8.850;2022-09-09T07:30:23;8.77;;;4.95;;
32333;SDS011;18810;53.040;8.850;2022-09-09T07:32:50;9.55;;;5.57;;
32333;SDS011;18810;53.040;8.850;2022-09-09T07:35:17;9.95;;;5.13;;
32333;SDS011;18810;53.040;8.850;2022-09-09T07:37:43;8.63;;;5.53;;
32333;SDS011;18810;53.040;8.850;2022-09-09T07:40:10;9.30;;;5.43;;
32333;SDS011;18810;53.040;8.850;2022-09-09T07:42:36;7.03;;;5.18;;
32333;SDS011;18810;53.040;8.850;2022-09-09T07:45:02;8.75;;;5.20;;
32333;SDS011;18810;53.040;8.850;2022-09-09T07:47:29;8.02;;;4.70;;
32333;SDS011;18810;53.040;8.850;2022-09-09T07:49:55;10.45;;;4.60;;
32333;SDS011;18810;53.040;8.850;2022-09-09T07:52:21;6.05;;;4.65;;
32333;SDS011;18810;53.040;8.850;2022-09-09T07:54:47;9.80;;;4.90;;
32333;SDS011;18810;53.040;8.850;2022-09-09T07:57:12;7.63;;;4.13;;
32333;SDS011;18810;53.040;8.850;2022-09-09T07:59:38;5.55;;;3.90;;
32333;SDS011;18810;53.040;8.850;2022-09-09T08:02:04;4.28;;;3.30;;
32333;SDS011;18810;53.040;8.850;2022-09-09T08:04:31;5.18;;;3.40;;
32333;SDS011;18810;53.040;8.850;2022-09-09T08:06:58;7.07;;;3.13;;
32333;SDS011;18810;53.040;8.850;2022-09-09T08:09:26;6.55;;;3.38;;
32333;SDS011;18810;53.040;8.850;2022-09-09T08:11:53;5.38;;;3.35;;
32333;SDS011;18810;53.040;8.850;2022-09-09T08:14:21;4.35;;;2.83;;
32333;SDS011;18810;53.040;8.850;2022-09-09T08:16:48;6.47;;;3.20;;
32333;SDS011;18810;53.040;8.850;2022-09-09T08:19:15;5.03;;;2.88;;
32333;SDS011;18810;53.040;8.850;2022-09-09T08:21:41;8.23;;;3.20;;
32333;SDS011;18810;53.040;8.850;2022-09-09T08:24:08;5.00;;;3.38;;
32333;SDS011;18810;53.040;8.850;2022-09-09T08:26:36;4.00;;;2.70;;
32333;SDS011;18810;53.040;8.850;2022-09-09T08:29:04;7.45;;;3.40;;
32333;SDS011;18810;53.040;8.850;2022-09-09T08:31:36;4.78;;;3.10;;
32333;SDS011;18810;53.040;8.850;2022-09-09T08:34:04;6.35;;;3.20;;
32333;SDS011;18810;53.040;8.850;2022-09-09T08:36:33;6.90;;;3.20;;
32333;SDS011;18810;53.040;8.850;2022-09-09T08:41:43;6.18;;;3.10;;
32333;SDS011;18810;53.040;8.850;2022-09-09T08:53:15;5.50;;;3.78;;
32333;SDS011;18810;53.040;8.850;2022-09-09T08:55:50;8.20;;;3.30;;
32333;SDS011;18810;53.040;8.850;2022-09-09T08:58:18;6.60;;;2.97;;
32333;SDS011;18810;53.040;8.850;2022-09-09T09:11:46;6.78;;;3.20;;
32333;SDS011;18810;53.040;8.850;2022-09-09T09:14:27;6.25;;;2.90;;
32333;SDS011;18810;53.040;8.850;2022-09-09T09:25:02;7.40;;;3.40;;
32333;SDS011;18810;53.040;8.850;2022-09-09T09:30:40;4.63;;;3.40;;
32333;SDS011;18810;53.040;8.850;2022-09-09T09:33:32;4.32;;;3.30;;
32333;SDS011;18810;53.040;8.850;2022-09-09T09:36:06;5.40;;;3.30;;
32333;SDS011;18810;53.040;8.850;2022-09-09T09:38:33;4.28;;;2.92;;
32333;SDS011;18810;53.040;8.850;2022-09-09T09:41:00;6.13;;;3.10;;
32333;SDS011;18810;53.040;8.850;2022-09-09T09:43:27;7.65;;;3.10;;
32333;SDS011;18810;53.040;8.850;2022-09-09T09:46:00;4.90;;;2.70;;
32333;SDS011;18810;53.040;8.850;2022-09-09T09:48:29;6.38;;;3.35;;
32333;SDS011;18810;53.040;8.850;2022-09-09T09:50:59;7.63;;;3.65;;
32333;SDS011;18810;53.040;8.850;2022-09-09T09:53:34;6.80;;;3.30;;
32333;SDS011;18810;53.040;8.850;2022-09-09T09:56:02;6.28;;;3.22;;
32333;SDS011;18810;53.040;8.850;2022-09-09T09:58:32;8.68;;;3.70;;
32333;SDS011;18810;53.040;8.850;2022-09-09T10:01:29;8.63;;;3.92;;
32333;SDS011;18810;53.040;8.850;2022-09-09T10:04:17;5.60;;;4.20;;
32333;SDS011;18810;53.040;8.850;2022-09-09T10:06:46;9.00;;;4.28;;
32333;SDS011;18810;53.040;8.850;2022-09-09T10:09:30;8.80;;;4.50;;
32333;SDS011;18810;53.040;8.850;2022-09-09T10:12:19;7.75;;;4.40;;
32333;SDS011;18810;53.040;8.850;2022-09-09T10:20:58;6.68;;;4.60;;
32333;SDS011;18810;53.040;8.850;2022-09-09T10:26:43;7.40;;;4.25;;
32333;SDS011;18810;53.040;8.850;2022-09-09T10:29:22;7.35;;;5.28;;
32333;SDS011;18810;53.040;8.850;2022-09-09T10:32:06;6.72;;;4.68;;
32333;SDS011;18810;53.040;8.850;2022-09-09T10:43:01;6.72;;;4.97;;
32333;SDS011;18810;53.040;8.850;2022-09-09T10:51:40;9.30;;;5.00;;
32333;SDS011;18810;53.040;8.850;2022-09-09T10:56:50;6.97;;;4.13;;
32333;SDS011;18810;53.040;8.850;2022-09-09T10:59:24;8.60;;;4.47;;
32333;SDS011;18810;53.040;8.850;2022-09-09T11:04:27;5.95;;;3.35;;
32333;SDS011;18810;53.040;8.850;2022-09-09T11:07:05;4.55;;;3.13;;
32333;SDS011;18810;53.040;8.850;2022-09-09T11:09:36;6.53;;;3.63;;
32333;SDS011;18810;53.040;8.850;2022-09-09T11:12:06;5.60;;;3.17;;
32333;SDS011;18810;53.040;8.850;2022-09-09T11:14:59;6.60;;;3.47;;
32333;SDS011;18810;53.040;8.850;2022-09-09T11:17:49;4.93;;;2.92;;
32333;SDS011;18810;53.040;8.850;2022-09-09T11:20:19;8.27;;;2.88;;
32333;SDS011;18810;53.040;8.850;2022-09-09T11:22:49;5.93;;;2.92;;
32333;SDS011;18810;53.040;8.850;2022-09-09T11:25:21;6.90;;;3.13;;
32333;SDS011;18810;53.040;8.850;2022-09-09T11:30:20;6.70;;;3.40;;
32333;SDS011;18810;53.040;8.850;2022-09-09T11:41:11;10.57;;;4.30;;
32333;SDS011;18810;53.040;8.850;2022-09-09T11:43:45;7.72;;;4.00;;
32333;SDS011;18810;53.040;8.850;2022-09-09T11:46:19;9.05;;;4.10;;
32333;SDS011;18810;53.040;8.850;2022-09-09T11:49:01;6.82;;;3.90;;
32333;SDS011;18810;53.040;8.850;2022-09-09T11:51:28;7.55;;;4.10;;
32333;SDS011;18810;53.040;8.850;2022-09-09T11:54:02;7.45;;;4.30;;
32333;SDS011;18810;53.040;8.850;2022-09-09T11:56:47;5.38;;;4.13;;
32333;SDS011;18810;53.040;8.850;2022-09-09T12:01:46;8.82;;;4.63;;
32333;SDS011;18810;53.040;8.850;2022-09-09T12:06:55;7.40;;;4.22;;
32333;SDS011;18810;53.040;8.850;2022-09-09T12:12:25;8.50;;;4.20;;
32333;SDS011;18810;53.040;8.850;2022-09-09T12:14:58;6.15;;;4.35;;
32333;SDS011;18810;53.040;8.850;2022-09-09T12:17:49;9.65;;;4.78;;
32333;SDS011;18810;53.040;8.850;2022-09-09T12:20:21;7.88;;;5.75;;
32333;SDS011;18810;53.040;8.850;2022-09-09T12:23:18;18.02;;;9.40;;
32333;SDS011;18810;53.040;8.850;2022-09-09T12:28:52;14.55;;;7.10;;
32333;SDS011;18810;53.040;8.850;2022-09-09T12:34:02;11.20;;;7.22;;
32333;SDS011;18810;53.040;8.850;2022-09-09T12:36:35;13.65;;;9.38;;
32333;SDS011;18810;53.040;8.850;2022-09-09T12:39:12;13.50;;;9.48;;
32333;SDS011;18810;53.040;8.850;2022-09-09T12:42:03;17.58;;;11.68;;
32333;SDS011;18810;53.040;8.850;2022-09-09T12:44:30;16.42;;;10.60;;
32333;SDS011;18810;53.040;8.850;2022-09-09T12:46:58;18.23;;;12.27;;
32333;SDS011;18810;53.040;8.850;2022-09-09T12:51:53;20.63;;;12.95;;
32333;SDS011;18810;53.040;8.850;2022-09-09T12:54:19;19.42;;;13.27;;
32333;SDS011;18810;53.040;8.850;2022-09-09T12:56:46;15.88;;;11.73;;
32333;SDS011;18810;53.040;8.850;2022-09-09T12:59:23;16.05;;;10.57;;
32333;SDS011;18810;53.040;8.850;2022-09-09T13:01:57;13.57;;;9.18;;
32333;SDS011;18810;53.040;8.850;2022-09-09T13:04:23;12.70;;;8.73;;
32333;SDS011;18810;53.040;8.850;2022-09-09T13:06:49;13.73;;;10.48;;
32333;SDS011;18810;53.040;8.850;2022-09-09T13:09:17;14.45;;;10.60;;
32333;SDS011;18810;53.040;8.850;2022-09-09T13:11:43;13.35;;;10.07;;
32333;SDS011;18810;53.040;8.850;2022-09-09T13:14:15;12.93;;;9.45;;
32333;SDS011;18810;53.040;8.850;2022-09-09T13:16:54;10.63;;;8.57;;
32333;SDS011;18810;53.040;8.850;2022-09-09T13:19:22;11.13;;;6.57;;
32333;SDS011;18810;53.040;8.850;2022-09-09T13:21:50;8.05;;;6.00;;
32333;SDS011;18810;53.040;8.850;2022-09-09T13:27:01;8.43;;;5.43;;
32333;SDS011;18810;53.040;8.850;2022-09-09T13:29:53;6.70;;;5.15;;
32333;SDS011;18810;53.040;8.850;2022-09-09T13:32:20;8.68;;;4.82;;
32333;SDS011;18810;53.040;8.850;2022-09-09T13:35:22;9.32;;;5.15;;
32333;SDS011;18810;53.040;8.850;2022-09-09T13:37:48;7.00;;;5.05;;
32333;SDS011;18810;53.040;8.850;2022-09-09T13:40:18;8.40;;;5.15;;
32333;SDS011;18810;53.040;8.850;2022-09-09T13:42:46;5.65;;;4.75;;
32333;SDS011;18810;53.040;8.850;2022-09-09T13:45:19;5.47;;;4.40;;
32333;SDS011;18810;53.040;8.850;2022-09-09T13:47:48;11.23;;;5.00;;
32333;SDS011;18810;53.040;8.850;2022-09-09T13:50:22;7.30;;;4.53;;
32333;SDS011;18810;53.040;8.850;2022-09-09T13:52:53;7.15;;;4.32;;
32333;SDS011;18810;53.040;8.850;2022-09-09T13:55:22;7.00;;;4.50;;
32333;SDS011;18810;53.040;8.850;2022-09-09T13:57:59;6.15;;;4.40;;
32333;SDS011;18810;53.040;8.850;2022-09-09T14:00:28;7.82;;;4.72;;
32333;SDS011;18810;53.040;8.850;2022-09-09T14:02:55;6.22;;;4.57;;
32333;SDS011;18810;53.040;8.850;2022-09-09T14:05:21;5.78;;;4.88;;
32333;SDS011;18810;53.040;8.850;2022-09-09T14:07:47;7.65;;;5.38;;
32333;SDS011;18810;53.040;8.850;2022-09-09T14:10:14;7.43;;;5.90;;
32333;SDS011;18810;53.040;8.850;2022-09-09T14:12:40;9.77;;;6.72;;
32333;SDS011;18810;53.040;8.850;2022-09-09T14:15:06;8.25;;;6.72;;
32333;SDS011;18810;53.040;8.850;2022-09-09T14:17:33;9.00;;;6.93;;
32333;SDS011;18810;53.040;8.850;2022-09-09T14:20:01;10.93;;;7.90;;
32333;SDS011;18810;53.040;8.850;2022-09-09T14:22:33;12.00;;;8.60;;
32333;SDS011;18810;53.040;8.850;2022-09-09T14:24:59;14.55;;;8.88;;
32333;SDS011;18810;53.040;8.850;2022-09-09T14:27:25;13.35;;;8.18;;
32333;SDS011;18810;53.040;8.850;2022-09-09T14:29:51;10.15;;;8.23;;
32333;SDS011;18810;53.040;8.850;2022-09-09T14:32:17;12.35;;;8.90;;
32333;SDS011;18810;53.040;8.850;2022-09-09T14:34:43;13.32;;;9.45;;
32333;SDS011;18810;53.040;8.850;2022-09-09T14:37:09;14.65;;;10.05;;
32333;SDS011;18810;53.040;8.850;2022-09-09T14:39:34;9.52;;;8.40;;
32333;SDS011;18810;53.040;8.850;2022-09-09T14:42:00;10.15;;;9.15;;
32333;SDS011;18810;53.040;8.850;2022-09-09T14:44:27;10.10;;;8.75;;
32333;SDS011;18810;53.040;8.850;2022-09-09T14:46:53;12.35;;;8.93;;
32333;SDS011;18810;53.040;8.850;2022-09-09T14:49:19;14.93;;;9.23;;
32333;SDS011;18810;53.040;8.850;2022-09-09T14:51:45;13.02;;;9.23;;
32333;SDS011;18810;53.040;8.850;2022-09-09T14:54:11;12.43;;;8.88;;
32333;SDS011;18810;53.040;8.850;2022-09-09T14:56:36;12.40;;;8.95;;
32333;SDS011;18810;53.040;8.850;2022-09-09T14:59:03;11.70;;;9.40;;
32333;SDS011;18810;53.040;8.850;2022-09-09T15:01:29;11.05;;;9.30;;
32333;SDS011;18810;53.040;8.850;2022-09-09T15:04:00;17.58;;;9.93;;
32333;SDS011;18810;53.040;8.850;2022-09-09T15:08:55;10.95;;;8.68;;
32333;SDS011;18810;53.040;8.850;2022-09-09T15:11:25;19.52;;;10.40;;
32333;SDS011;18810;53.040;8.850;2022-09-09T15:13:52;15.90;;;10.90;;
32333;SDS011;18810;53.040;8.850;2022-09-09T15:16:20;12.45;;;10.13;;
32333;SDS011;18810;53.040;8.850;2022-09-09T15:18:49;16.65;;;10.35;;
32333;SDS011;18810;53.040;8.850;2022-09-09T15:21:17;16.20;;;11.43;;
32333;SDS011;18810;53.040;8.850;2022-09-09T15:23:45;13.27;;;10.68;;
32333;SDS011;18810;53.040;8.850;2022-09-09T15:26:12;22.38;;;11.82;;
32333;SDS011;18810;53.040;8.850;2022-09-09T15:28:39;17.10;;;12.15;;
32333;SDS011;18810;53.040;8.850;2022-09-09T15:31:09;16.50;;;10.63;;
32333;SDS011;18810;53.040;8.850;2022-09-09T15:33:39;13.63;;;10.60;;
32333;SDS011;18810;53.040;8.850;2022-09-09T15:36:15;17.33;;;10.07;;
32333;SDS011;18810;53.040;8.850;2022-09-09T15:38:41;19.02;;;10.40;;
32333;SDS011;18810;53.040;8.850;2022-09-09T15:41:08;15.60;;;9.23;;
32333;SDS011;18810;53.040;8.850;2022-09-09T15:43:37;15.27;;;8.88;;
32333;SDS011;18810;53.040;8.850;2022-09-09T15:46:21;16.17;;;8.10;;
32333;SDS011;18810;53.040;8.850;2022-09-09T15:48:52;10.93;;;7.50;;
32333;SDS011;18810;53.040;8.850;2022-09-09T15:51:19;11.40;;;6.80;;
32333;SDS011;18810;53.040;8.850;2022-09-09T15:53:45;8.05;;;6.78;;
32333;SDS011;18810;53.040;8.850;2022-09-09T15:56:10;9.18;;;6.18;;
32333;SDS011;18810;53.040;8.850;2022-09-09T15:58:36;9.57;;;6.28;;
32333;SDS011;18810;53.040;8.850;2022-09-09T16:01:03;12.73;;;5.97;;
32333;SDS011;18810;53.040;8.850;2022-09-09T16:03:36;9.70;;;6.22;;
32333;SDS011;18810;53.040;8.850;2022-09-09T16:06:03;12.55;;;6.30;;
32333;SDS011;18810;53.040;8.850;2022-09-09T16:08:33;7.28;;;5.47;;
32333;SDS011;18810;53.040;8.850;2022-09-09T16:13:35;10.68;;;5.72;;
32333;SDS011;18810;53.040;8.850;2022-09-09T16:16:02;8.35;;;5.68;;
32333;SDS011;18810;53.040;8.850;2022-09-09T16:18:42;11.15;;;5.80;;
32333;SDS011;18810;53.040;8.850;2022-09-09T16:21:13;7.40;;;5.18;;
32333;SDS011;18810;53.040;8.850;2022-09-09T16:23:47;10.57;;;5.53;;
32333;SDS011;18810;53.040;8.850;2022-09-09T16:26:15;12.07;;;5.40;;
32333;SDS011;18810;53.040;8.850;2022-09-09T16:28:41;10.15;;;5.05;;
32333;SDS011;18810;53.040;8.850;2022-09-09T16:31:09;9.27;;;5.00;;
32333;SDS011;18810;53.040;8.850;2022-09-09T16:33:38;9.30;;;5.75;;
32333;SDS011;18810;53.040;8.850;2022-09-09T16:36:07;6.65;;;4.57;;
32333;SDS011;18810;53.040;8.850;2022-09-09T16:38:35;6.75;;;4.78;;
32333;SDS011;18810;53.040;8.850;2022-09-09T16:41:01;9.55;;;5.05;;
32333;SDS011;18810;53.040;8.850;2022-09-09T16:43:31;8.05;;;4.25;;
32333;SDS011;18810;53.040;8.850;2022-09-09T16:45:58;8.48;;;4.75;;
32333;SDS011;18810;53.040;8.850;2022-09-09T16:48:26;6.22;;;4.97;;
32333;SDS011;18810;53.040;8.850;2022-09-09T16:51:00;6.38;;;4.68;;
32333;SDS011;18810;53.040;8.850;2022-09-09T16:53:30;8.65;;;4.18;;
32333;SDS011;18810;53.040;8.850;2022-09-09T16:55:56;7.95;;;4.38;;
32333;SDS011;18810;53.040;8.850;2022-09-09T16:58:22;6.38;;;3.97;;
32333;SDS011;18810;53.040;8.850;2022-09-09T17:00:47;5.72;;;4.25;;
32333;SDS011;18810;53.040;8.850;2022-09-09T17:03:13;8.65;;;4.78;;
32333;SDS011;18810;53.040;8.850;2022-09-09T17:05:40;7.30;;;4.60;;
32333;SDS011;18810;53.040;8.850;2022-09-09T17:08:06;8.45;;;4.63;;
32333;SDS011;18810;53.040;8.850;2022-09-09T17:10:32;5.30;;;3.80;;